createdAt,value
2022-11-01T00:01:45.243Z,5.32
2022-11-01T00:04:12.074Z,5.10
2022-11-01T00:06:38.862Z,5.43
2022-11-01T00:09:06.143Z,5.43
2022-11-01T00:11:32.998Z,5.00
2022-11-01T00:13:59.842Z,5.63
2022-11-01T00:16:26.792Z,4.97
2022-11-01T00:18:53.538Z,4.38
2022-11-01T00:21:20.965Z,5.03
2022-11-01T00:23:48.130Z,5.00
2022-11-01T00:26:20.737Z,4.43
2022-11-01T00:28:48.227Z,4.22
2022-11-01T00:31:16.287Z,4.00
2022-11-01T00:33:43.318Z,4.25
2022-11-01T00:36:10.389Z,4.13
2022-11-01T00:38:37.498Z,3.83
2022-11-01T00:41:04.745Z,4.00
2022-11-01T00:43:33.153Z,3.80
2022-11-01T00:46:00.696Z,3.97
2022-11-01T00:48:27.946Z,3.70
2022-11-01T00:50:54.836Z,3.70
2022-11-01T00:53:22.295Z,3.90
2022-11-01T00:55:49.050Z,3.88
2022-11-01T00:58:15.906Z,3.83
2022-11-01T01:00:42.836Z,3.83
2022-11-01T01:03:09.866Z,3.40
2022-11-01T01:05:36.693Z,4.00
2022-11-01T01:08:03.723Z,3.78
2022-11-01T01:10:30.820Z,4.45
2022-11-01T01:12:57.724Z,3.25
2022-11-01T01:15:24.503Z,3.60
2022-11-01T01:17:52.772Z,4.22
2022-11-01T01:20:20.756Z,3.83
2022-11-01T01:22:47.971Z,3.47
2022-11-01T01:25:15.094Z,3.20
2022-11-01T01:27:41.940Z,4.30
2022-11-01T01:30:09.312Z,3.38
2022-11-01T01:32:36.489Z,3.83
2022-11-01T01:35:03.856Z,3.67
2022-11-01T01:37:30.710Z,3.65
2022-11-01T01:39:57.480Z,3.58
2022-11-01T01:42:32.215Z,3.55
2022-11-01T01:44:58.900Z,3.30
2022-11-01T01:47:32.461Z,5.18
2022-11-01T01:50:20.207Z,3.70
2022-11-01T01:53:08.405Z,3.97
2022-11-01T01:55:52.511Z,3.72
2022-11-01T01:58:22.537Z,3.83
2022-11-01T02:00:50.033Z,3.72
2022-11-01T02:03:17.272Z,3.90
2022-11-01T02:06:17.881Z,3.72
2022-11-01T02:08:54.151Z,3.92
2022-11-01T02:11:21.463Z,3.70
2022-11-01T02:13:48.973Z,3.70
2022-11-01T02:16:18.796Z,4.28
2022-11-01T02:18:52.584Z,4.13
2022-11-01T02:21:50.383Z,3.55
2022-11-01T02:24:35.790Z,3.47
2022-11-01T02:27:26.993Z,4.05
2022-11-01T02:30:06.211Z,3.75
2022-11-01T02:32:59.934Z,3.53
2022-11-01T02:35:26.899Z,4.07
2022-11-01T02:38:15.408Z,3.53
2022-11-01T02:41:10.927Z,3.55
2022-11-01T02:44:02.548Z,4.22
2022-11-01T02:46:59.606Z,3.58
2022-11-01T02:49:34.462Z,3.92
2022-11-01T02:52:02.923Z,3.80
2022-11-01T02:54:39.274Z,4.05
2022-11-01T02:57:28.325Z,4.13
2022-11-01T03:00:04.304Z,3.67
2022-11-01T03:02:44.232Z,4.00
2022-11-01T03:05:22.797Z,3.90
2022-11-01T03:07:55.203Z,3.80
2022-11-01T03:10:33.672Z,3.60
2022-11-01T03:13:20.300Z,3.60
2022-11-01T03:15:56.884Z,3.70
2022-11-01T03:18:32.528Z,3.47
2022-11-01T03:21:16.079Z,3.80
2022-11-01T03:23:52.040Z,3.75
2022-11-01T03:26:25.636Z,3.30
2022-11-01T03:28:57.734Z,3.13
2022-11-01T03:31:37.412Z,3.22
2022-11-01T03:34:07.039Z,2.65
2022-11-01T03:36:38.949Z,3.63
2022-11-01T03:39:11.548Z,4.00
2022-11-01T03:41:43.628Z,4.43
2022-11-01T03:44:12.801Z,2.90
2022-11-01T03:46:40.859Z,2.72
2022-11-01T03:49:07.643Z,2.72
2022-11-01T03:51:34.491Z,2.83
2022-11-01T03:54:01.207Z,2.63
2022-11-01T03:56:28.128Z,3.45
2022-11-01T03:58:55.042Z,2.60
2022-11-01T04:01:21.902Z,3.15
2022-11-01T04:03:48.771Z,3.17
2022-11-01T04:06:15.533Z,3.35
2022-11-01T04:08:42.315Z,2.72
2022-11-01T04:11:09.045Z,2.85
2022-11-01T04:13:35.833Z,2.85
2022-11-01T04:16:21.094Z,3.20
2022-11-01T04:19:06.624Z,3.17
2022-11-01T04:21:33.599Z,2.97
2022-11-01T04:24:00.320Z,3.50
2022-11-01T04:26:27.074Z,3.00
2022-11-01T04:28:59.733Z,2.58
2022-11-01T04:31:36.671Z,3.03
2022-11-01T04:34:05.185Z,2.60
2022-11-01T04:36:32.009Z,2.53
2022-11-01T04:38:58.902Z,3.00
2022-11-01T04:41:28.270Z,2.33
2022-11-01T04:43:57.313Z,2.03
2022-11-01T04:46:24.222Z,2.95
2022-11-01T04:48:51.059Z,2.28
2022-11-01T04:51:17.790Z,2.35
2022-11-01T04:53:44.642Z,2.50
2022-11-01T04:56:13.492Z,2.03
2022-11-01T04:58:44.852Z,2.20
2022-11-01T05:01:14.694Z,1.77
2022-11-01T05:03:42.592Z,1.77
2022-11-01T05:06:09.914Z,2.00
2022-11-01T05:08:36.687Z,2.00
2022-11-01T05:11:03.646Z,1.73
2022-11-01T05:13:30.558Z,1.90
2022-11-01T05:16:18.393Z,1.70
2022-11-01T05:18:44.086Z,1.60
2022-11-01T05:21:11.407Z,1.15
2022-11-01T05:23:38.128Z,1.58
2022-11-01T05:26:04.997Z,0.90
2022-11-01T05:28:31.840Z,1.13
2022-11-01T05:30:58.966Z,1.13
2022-11-01T05:33:25.988Z,1.23
2022-11-01T05:35:52.741Z,1.77
2022-11-01T05:38:19.608Z,1.00
2022-11-01T05:40:46.477Z,1.15
2022-11-01T05:43:13.188Z,1.10
2022-11-01T05:45:39.895Z,1.02
2022-11-01T05:48:06.711Z,1.00
2022-11-01T05:50:33.518Z,1.08
2022-11-01T05:53:10.463Z,1.10
2022-11-01T05:55:38.845Z,0.80
2022-11-01T05:58:06.430Z,0.90
2022-11-01T06:00:35.878Z,1.10
2022-11-01T06:03:03.676Z,1.10
2022-11-01T06:05:31.447Z,1.02
2022-11-01T06:08:00.371Z,0.80
2022-11-01T06:10:27.417Z,1.10
2022-11-01T06:12:54.821Z,0.73
2022-11-01T06:15:21.949Z,0.70
2022-11-01T06:17:48.712Z,0.90
2022-11-01T06:20:15.453Z,1.13
2022-11-01T06:22:42.183Z,0.80
2022-11-01T06:25:09.117Z,0.73
2022-11-01T06:27:35.900Z,0.73
2022-11-01T06:30:02.705Z,0.90
2022-11-01T06:32:29.521Z,0.90
2022-11-01T06:34:56.305Z,0.95
2022-11-01T06:37:23.178Z,1.27
2022-11-01T06:39:50.465Z,0.90
2022-11-01T06:42:17.231Z,0.80
2022-11-01T06:44:43.965Z,1.23
2022-11-01T06:47:12.523Z,0.80
2022-11-01T06:49:39.637Z,1.02
2022-11-01T06:52:06.856Z,0.80
2022-11-01T06:54:33.648Z,0.70
2022-11-01T06:57:00.424Z,0.93
2022-11-01T06:59:27.255Z,0.70
2022-11-01T07:01:54.586Z,0.80
2022-11-01T07:04:21.667Z,0.40
2022-11-01T07:06:48.678Z,0.90
2022-11-01T07:09:15.483Z,0.70
2022-11-01T07:11:42.253Z,0.60
2022-11-01T07:14:09.591Z,0.40
2022-11-01T07:16:36.382Z,0.82
2022-11-01T07:19:03.094Z,0.75
2022-11-01T07:21:30.125Z,0.75
2022-11-01T07:23:56.939Z,0.45
2022-11-01T07:26:24.784Z,0.70
2022-11-01T07:28:51.636Z,1.15
2022-11-01T07:31:18.399Z,0.77
2022-11-01T07:33:45.282Z,0.50
2022-11-01T07:36:12.173Z,0.80
2022-11-01T07:38:38.971Z,0.70
2022-11-01T07:41:06.156Z,1.20
2022-11-01T07:43:34.346Z,0.98
2022-11-01T07:46:04.018Z,0.60
2022-11-01T07:48:30.820Z,0.80
2022-11-01T07:50:57.651Z,0.50
2022-11-01T07:53:24.855Z,0.70
2022-11-01T07:55:51.689Z,0.70
2022-11-01T07:58:18.625Z,0.60
2022-11-01T08:00:45.855Z,0.80
2022-11-01T08:03:15.462Z,0.60
2022-11-01T08:05:46.223Z,0.60
2022-11-01T08:08:14.253Z,0.90
2022-11-01T08:10:42.330Z,1.20
2022-11-01T08:13:18.153Z,0.85
2022-11-01T08:15:45.921Z,0.50
2022-11-01T08:18:12.798Z,0.40
2022-11-01T08:20:41.083Z,0.50
2022-11-01T08:23:08.697Z,0.55
2022-11-01T08:25:35.681Z,0.50
2022-11-01T08:28:04.534Z,0.70
2022-11-01T08:30:32.228Z,0.77
2022-11-01T08:33:03.442Z,0.40
2022-11-01T08:35:31.357Z,0.50
2022-11-01T08:38:01.341Z,0.40
2022-11-01T08:40:28.506Z,0.52
2022-11-01T08:42:55.626Z,0.50
2022-11-01T08:45:22.706Z,0.70
2022-11-01T08:47:49.572Z,0.50
2022-11-01T08:50:17.853Z,0.63
2022-11-01T08:52:44.701Z,0.50
2022-11-01T08:55:11.768Z,0.32
2022-11-01T08:57:38.671Z,0.45
2022-11-01T09:00:10.339Z,0.70
2022-11-01T09:02:37.268Z,0.70
2022-11-01T09:05:06.536Z,0.30
2022-11-01T09:07:37.400Z,0.35
2022-11-01T09:10:05.403Z,0.40
2022-11-01T09:12:32.765Z,0.50
2022-11-01T09:14:59.619Z,0.40
2022-11-01T09:17:26.460Z,0.60
2022-11-01T09:19:53.192Z,0.43
2022-11-01T09:22:19.910Z,0.40
2022-11-01T09:24:46.927Z,0.30
2022-11-01T09:27:13.674Z,0.40
2022-11-01T09:29:40.504Z,0.80
2022-11-01T09:32:07.324Z,0.52
2022-11-01T09:34:35.105Z,0.30
2022-11-01T09:37:02.154Z,0.32
2022-11-01T09:39:29.066Z,0.28
2022-11-01T09:42:02.710Z,0.38
2022-11-01T09:44:37.427Z,0.30
2022-11-01T09:47:25.972Z,0.20
2022-11-01T09:50:04.944Z,0.40
2022-11-01T09:52:31.841Z,0.60
2022-11-01T09:54:59.130Z,0.30
2022-11-01T09:57:39.819Z,0.40
2022-11-01T10:00:07.874Z,0.38
2022-11-01T10:02:59.257Z,0.30
2022-11-01T10:05:37.528Z,0.35
2022-11-01T10:08:22.720Z,0.28
2022-11-01T10:11:04.813Z,0.40
2022-11-01T10:13:54.701Z,0.77
2022-11-01T10:16:30.558Z,0.63
2022-11-01T10:19:11.820Z,0.65
2022-11-01T10:21:44.538Z,0.40
2022-11-01T10:24:24.826Z,0.43
2022-11-01T10:26:57.971Z,0.60
2022-11-01T10:29:47.089Z,0.73
2022-11-01T10:32:42.297Z,0.40
2022-11-01T10:35:20.528Z,0.60
2022-11-01T10:38:04.358Z,0.65
2022-11-01T10:40:55.412Z,0.55
2022-11-01T10:43:23.376Z,0.45
2022-11-01T10:45:52.945Z,0.40
2022-11-01T10:48:48.554Z,0.60
2022-11-01T10:51:18.742Z,0.50
2022-11-01T10:53:50.143Z,0.70
2022-11-01T10:56:26.521Z,0.43
2022-11-01T10:59:25.716Z,0.70
2022-11-01T11:01:54.960Z,0.43
2022-11-01T11:04:23.946Z,0.70
2022-11-01T11:06:51.806Z,0.60
2022-11-01T11:09:28.896Z,0.63
2022-11-01T11:12:01.300Z,0.45
2022-11-01T11:14:31.683Z,0.65
2022-11-01T11:16:59.200Z,0.68
2022-11-01T11:19:38.244Z,0.50
2022-11-01T11:22:09.478Z,0.73
2022-11-01T11:24:39.596Z,0.50
2022-11-01T11:27:34.102Z,0.90
2022-11-01T11:30:02.492Z,0.77
2022-11-01T11:32:32.683Z,1.05
2022-11-01T11:35:03.812Z,0.82
2022-11-01T11:37:34.203Z,0.70
2022-11-01T11:40:14.912Z,0.57
2022-11-01T11:42:41.890Z,0.60
2022-11-01T11:45:31.008Z,0.50
2022-11-01T11:48:24.021Z,0.85
2022-11-01T11:51:04.852Z,0.63
2022-11-01T11:53:33.468Z,0.63
2022-11-01T11:56:09.430Z,0.75
2022-11-01T11:58:38.309Z,0.50
2022-11-01T12:01:08.064Z,0.95
2022-11-01T12:03:56.479Z,0.80
2022-11-01T12:06:28.392Z,0.85
2022-11-01T12:08:57.062Z,1.00
2022-11-01T12:11:25.197Z,0.80
2022-11-01T12:14:05.333Z,1.13
2022-11-01T12:16:42.676Z,1.00
2022-11-01T12:19:29.293Z,0.60
2022-11-01T12:22:02.201Z,0.90
2022-11-01T12:24:45.498Z,0.60
2022-11-01T12:27:23.342Z,0.75
2022-11-01T12:30:11.377Z,0.60
2022-11-01T12:32:53.935Z,0.70
2022-11-01T12:35:29.437Z,0.70
2022-11-01T12:38:24.136Z,1.00
2022-11-01T12:40:52.679Z,0.80
2022-11-01T12:43:26.421Z,0.93
2022-11-01T12:46:10.989Z,0.50
2022-11-01T12:48:45.127Z,0.80
2022-11-01T12:51:35.848Z,0.50
2022-11-01T12:54:14.051Z,0.80
2022-11-01T12:56:40.947Z,0.70
2022-11-01T12:59:12.431Z,1.85
2022-11-01T13:01:51.627Z,0.90
2022-11-01T13:04:47.391Z,0.82
2022-11-01T13:07:46.237Z,0.55
2022-11-01T13:10:24.708Z,0.63
2022-11-01T13:13:14.143Z,0.73
2022-11-01T13:16:09.888Z,0.63
2022-11-01T13:18:51.973Z,0.63
2022-11-01T13:21:39.905Z,0.63
2022-11-01T13:25:02.942Z,0.80
2022-11-01T13:31:39.860Z,1.85
2022-11-01T13:34:26.009Z,1.60
2022-11-01T13:37:27.045Z,2.08
2022-11-01T13:42:57.753Z,1.20
2022-11-01T13:45:52.920Z,1.30
2022-11-01T13:48:58.885Z,1.55
2022-11-01T13:51:44.152Z,0.70
2022-11-01T13:54:13.821Z,0.63
2022-11-01T13:56:48.637Z,0.60
2022-11-01T13:59:54.816Z,0.68
2022-11-01T14:02:27.837Z,0.60
2022-11-01T14:07:37.473Z,0.50
2022-11-01T14:10:31.407Z,0.80
2022-11-01T14:13:15.053Z,0.60
2022-11-01T14:15:54.081Z,0.60
2022-11-01T14:18:20.987Z,0.50
2022-11-01T14:20:52.661Z,0.65
2022-11-01T14:23:28.934Z,0.52
2022-11-01T14:26:21.055Z,0.50
2022-11-01T14:28:59.230Z,0.80
2022-11-01T14:31:28.853Z,0.63
2022-11-01T14:34:02.006Z,0.80
2022-11-01T14:36:39.609Z,0.40
2022-11-01T14:39:46.399Z,0.47
2022-11-01T14:42:24.007Z,0.60
2022-11-01T14:44:53.737Z,0.70
2022-11-01T14:47:41.467Z,0.70
2022-11-01T14:50:29.039Z,0.73
2022-11-01T14:53:03.938Z,0.55
2022-11-01T14:55:36.650Z,0.70
2022-11-01T14:58:18.686Z,0.85
2022-11-01T15:00:47.127Z,0.60
2022-11-01T15:03:14.885Z,0.73
2022-11-01T15:05:51.159Z,1.17
2022-11-01T15:08:40.643Z,1.20
2022-11-01T15:11:13.317Z,0.98
2022-11-01T15:13:43.668Z,1.00
2022-11-01T15:16:21.717Z,0.98
2022-11-01T15:18:54.943Z,1.45
2022-11-01T15:24:03.593Z,2.20
2022-11-01T15:26:36.361Z,2.00
2022-11-01T15:29:06.946Z,2.17
2022-11-01T15:31:45.172Z,1.65
2022-11-01T15:34:50.783Z,1.88
2022-11-01T15:37:24.839Z,1.50
2022-11-01T15:39:54.193Z,1.35
2022-11-01T15:42:31.569Z,1.65
2022-11-01T15:45:15.748Z,1.00
2022-11-01T15:47:46.621Z,1.70
2022-11-01T15:50:13.991Z,1.38
2022-11-01T15:52:40.872Z,1.02
2022-11-01T15:55:39.637Z,1.25
2022-11-01T15:58:20.085Z,1.55
2022-11-01T16:01:03.426Z,1.35
2022-11-01T16:04:04.626Z,1.27
2022-11-01T16:07:05.135Z,1.30
2022-11-01T16:09:58.627Z,1.40
2022-11-01T16:12:38.590Z,1.30
2022-11-01T16:15:26.293Z,1.40
2022-11-01T16:18:00.326Z,1.70
2022-11-01T16:20:41.037Z,1.73
2022-11-01T16:23:09.246Z,1.60
2022-11-01T16:25:47.228Z,1.50
2022-11-01T16:28:13.967Z,1.65
2022-11-01T16:30:50.655Z,1.50
2022-11-01T16:33:18.868Z,1.60
2022-11-01T16:35:48.044Z,2.30
2022-11-01T16:38:34.209Z,1.77
2022-11-01T16:41:07.272Z,2.20
2022-11-01T16:43:35.907Z,2.38
2022-11-01T16:46:05.523Z,2.63
2022-11-01T16:48:50.312Z,1.77
2022-11-01T16:51:17.532Z,1.95
2022-11-01T16:53:44.563Z,1.70
2022-11-01T16:56:37.455Z,0.93
2022-11-01T16:59:08.294Z,1.40
2022-11-01T17:01:36.465Z,1.80
2022-11-01T17:04:04.452Z,1.80
2022-11-01T17:06:38.519Z,1.95
2022-11-01T17:09:13.924Z,1.38
2022-11-01T17:11:43.959Z,1.35
2022-11-01T17:14:13.570Z,0.90
2022-11-01T17:16:40.477Z,1.33
2022-11-01T17:19:11.333Z,1.30
2022-11-01T17:21:39.273Z,1.20
2022-11-01T17:24:06.302Z,1.20
2022-11-01T17:26:33.966Z,1.30
2022-11-01T17:29:00.691Z,1.40
2022-11-01T17:31:30.374Z,1.27
2022-11-01T17:33:57.332Z,1.20
2022-11-01T17:36:24.251Z,1.25
2022-11-01T17:38:50.991Z,1.50
2022-11-01T17:41:19.671Z,1.30
2022-11-01T17:43:46.531Z,1.13
2022-11-01T17:46:15.841Z,1.50
2022-11-01T17:48:42.612Z,1.55
2022-11-01T17:51:09.693Z,2.05
2022-11-01T17:53:39.308Z,1.50
2022-11-01T17:56:06.773Z,1.52
2022-11-01T17:58:33.700Z,1.48
2022-11-01T18:01:00.741Z,1.67
2022-11-01T18:03:27.695Z,1.15
2022-11-01T18:05:59.409Z,1.20
2022-11-01T18:08:28.069Z,1.52
2022-11-01T18:11:01.121Z,1.30
2022-11-01T18:13:38.309Z,1.00
2022-11-01T18:16:08.255Z,1.20
2022-11-01T18:19:30.346Z,0.95
2022-11-01T18:22:09.637Z,0.90
2022-11-01T18:24:52.701Z,1.17
2022-11-01T18:27:24.994Z,1.20
2022-11-01T18:29:52.358Z,1.13
2022-11-01T18:32:45.036Z,1.10
2022-11-01T18:35:28.895Z,1.00
2022-11-01T18:38:07.876Z,1.05
2022-11-01T18:40:55.730Z,1.42
2022-11-01T18:43:22.931Z,1.10
2022-11-01T18:46:19.080Z,1.00
2022-11-01T18:48:37.514Z,2.22
2022-11-01T18:51:12.765Z,1.50
2022-11-01T18:53:39.577Z,1.10
2022-11-01T18:56:22.168Z,1.40
2022-11-01T18:58:50.963Z,1.30
2022-11-01T19:01:31.423Z,1.10
2022-11-01T19:04:02.475Z,1.10
2022-11-01T19:06:32.716Z,1.40
2022-11-01T19:09:07.145Z,1.15
2022-11-01T19:11:33.948Z,1.35
2022-11-01T19:14:02.262Z,1.10
2022-11-01T19:16:29.379Z,1.00
2022-11-01T19:18:56.287Z,1.20
2022-11-01T19:21:25.137Z,1.00
2022-11-01T19:23:57.807Z,0.80
2022-11-01T19:26:35.495Z,1.23
2022-11-01T19:29:15.377Z,1.20
2022-11-01T19:31:45.083Z,0.98
2022-11-01T19:34:24.195Z,1.00
2022-11-01T19:36:52.613Z,1.20
2022-11-01T19:39:26.204Z,0.90
2022-11-01T19:41:55.516Z,1.13
2022-11-01T19:44:24.511Z,0.95
2022-11-01T19:47:01.113Z,1.00
2022-11-01T19:49:32.620Z,1.00
2022-11-01T19:52:09.083Z,0.85
2022-11-01T19:54:38.656Z,1.17
2022-11-01T19:57:26.975Z,1.25
2022-11-01T19:59:55.613Z,1.17
2022-11-01T20:02:23.075Z,1.10
2022-11-01T20:04:57.560Z,0.90
2022-11-01T20:07:26.899Z,1.05
2022-11-01T20:09:58.442Z,1.00
2022-11-01T20:12:25.657Z,1.17
2022-11-01T20:14:52.475Z,1.30
2022-11-01T20:17:19.306Z,1.33
2022-11-01T20:19:46.093Z,1.38
2022-11-01T20:22:12.917Z,1.20
2022-11-01T20:24:39.691Z,0.93
2022-11-01T20:27:06.442Z,0.88
2022-11-01T20:29:33.393Z,1.00
2022-11-01T20:32:00.239Z,1.08
2022-11-01T20:34:28.696Z,1.20
2022-11-01T20:37:26.917Z,1.27
2022-11-01T20:39:42.279Z,1.45
2022-11-01T20:42:09.457Z,1.17
2022-11-01T20:44:36.201Z,1.25
2022-11-01T20:47:03.009Z,1.08
2022-11-01T20:49:29.807Z,1.27
2022-11-01T20:52:03.795Z,1.13
2022-11-01T20:54:41.306Z,1.00
2022-11-01T20:57:15.683Z,1.63
2022-11-01T20:59:51.797Z,1.70
2022-11-01T21:02:19.414Z,1.60
2022-11-01T21:04:46.667Z,1.40
2022-11-01T21:07:14.280Z,1.17
2022-11-01T21:09:46.370Z,1.60
2022-11-01T21:12:47.624Z,1.60
2022-11-01T21:15:26.121Z,1.65
2022-11-01T21:18:02.683Z,2.13
2022-11-01T21:20:29.907Z,3.00
2022-11-01T21:23:09.332Z,4.10
2022-11-01T21:25:36.168Z,4.05
2022-11-01T21:28:32.604Z,3.90
2022-11-01T21:31:14.629Z,3.33
2022-11-01T21:33:53.432Z,2.85
2022-11-01T21:36:20.207Z,2.50
2022-11-01T21:38:48.129Z,2.92
2022-11-01T21:41:31.546Z,2.70
2022-11-01T21:46:34.780Z,2.33
2022-11-01T21:49:01.565Z,2.10
2022-11-01T21:51:29.582Z,1.77
2022-11-01T21:54:00.124Z,1.80
2022-11-01T21:56:30.296Z,1.52
2022-11-01T21:58:57.055Z,2.20
2022-11-01T22:01:24.323Z,1.85
2022-11-01T22:03:51.188Z,1.83
2022-11-01T22:06:17.981Z,1.75
2022-11-01T22:08:44.787Z,1.50
2022-11-01T22:11:11.503Z,1.63
2022-11-01T22:13:38.408Z,2.00
2022-11-01T22:16:05.533Z,2.03
2022-11-01T22:18:32.386Z,1.50
2022-11-01T22:20:59.220Z,1.52
2022-11-01T22:23:26.093Z,1.52
2022-11-01T22:25:52.894Z,1.55
2022-11-01T22:28:19.636Z,1.52
2022-11-01T22:30:46.353Z,1.38
2022-11-01T22:33:14.105Z,1.40
2022-11-01T22:35:40.897Z,1.50
2022-11-01T22:38:26.222Z,1.13
2022-11-01T22:40:59.107Z,1.40
2022-11-01T22:43:25.881Z,1.45
2022-11-01T22:45:54.169Z,1.40
2022-11-01T22:48:23.167Z,1.67
2022-11-01T22:50:50.315Z,1.52
2022-11-01T22:53:21.305Z,1.38
2022-11-01T22:55:53.034Z,1.05
2022-11-01T22:58:31.784Z,1.00
2022-11-01T23:01:00.438Z,1.00
2022-11-01T23:03:29.845Z,1.10
2022-11-01T23:06:02.109Z,1.00
2022-11-01T23:08:38.792Z,1.03
2022-11-01T23:11:05.713Z,1.10
2022-11-01T23:13:53.642Z,1.23
2022-11-01T23:16:30.789Z,1.10
2022-11-01T23:19:03.524Z,1.02
2022-11-01T23:21:30.401Z,1.00
2022-11-01T23:23:57.354Z,1.30
2022-11-01T23:26:24.646Z,1.25
2022-11-01T23:28:57.127Z,1.17
2022-11-01T23:31:26.825Z,1.00
2022-11-01T23:33:53.639Z,0.90
2022-11-01T23:36:27.728Z,1.10
2022-11-01T23:39:06.737Z,1.10
2022-11-01T23:41:38.075Z,1.50
2022-11-01T23:44:34.461Z,0.85
2022-11-01T23:47:01.270Z,1.00
2022-11-01T23:49:31.677Z,0.88
2022-11-01T23:52:00.270Z,1.10
2022-11-01T23:54:42.069Z,0.90
2022-11-01T23:57:16.486Z,0.85
2022-11-01T23:59:43.273Z,1.27
